createdAt,value
2023-01-03T00:01:42.486Z,2.23
2023-01-03T00:04:10.001Z,2.60
2023-01-03T00:06:44.948Z,2.10
2023-01-03T00:09:14.555Z,1.73
2023-01-03T00:12:00.692Z,2.30
2023-01-03T00:14:33.633Z,2.80
2023-01-03T00:17:02.256Z,3.23
2023-01-03T00:19:34.300Z,4.00
2023-01-03T00:22:01.231Z,4.43
2023-01-03T00:24:28.376Z,4.00
2023-01-03T00:26:55.431Z,4.90
2023-01-03T00:29:22.864Z,4.20
2023-01-03T00:31:50.340Z,4.03
2023-01-03T00:34:17.327Z,4.33
2023-01-03T00:36:44.308Z,3.53
2023-01-03T00:39:14.718Z,3.33
2023-01-03T00:41:42.284Z,4.17
2023-01-03T00:44:10.775Z,4.17
2023-01-03T00:46:38.183Z,4.07
2023-01-03T00:49:06.011Z,4.50
2023-01-03T00:51:34.795Z,4.47
2023-01-03T00:54:03.430Z,4.47
2023-01-03T00:56:33.727Z,5.07
2023-01-03T00:59:00.881Z,4.40
2023-01-03T01:01:30.681Z,3.90
2023-01-03T01:04:02.826Z,3.50
2023-01-03T01:06:33.113Z,2.00
2023-01-03T01:09:01.525Z,2.87
2023-01-03T01:11:30.161Z,3.23
2023-01-03T01:13:57.632Z,2.80
2023-01-03T01:16:27.525Z,3.27
2023-01-03T01:18:55.305Z,2.23
2023-01-03T01:21:30.421Z,2.27
2023-01-03T01:23:59.704Z,2.57
2023-01-03T01:26:27.539Z,2.30
2023-01-03T01:28:55.388Z,2.57
2023-01-03T01:31:25.105Z,2.33
2023-01-03T01:33:54.085Z,2.50
2023-01-03T01:36:29.949Z,2.20
2023-01-03T01:39:02.711Z,2.37
2023-01-03T01:41:50.869Z,1.90
2023-01-03T01:44:42.805Z,2.17
2023-01-03T01:47:40.106Z,1.90
2023-01-03T01:50:25.567Z,2.00
2023-01-03T01:53:01.917Z,1.83
2023-01-03T01:55:36.146Z,1.70
2023-01-03T01:58:03.548Z,1.97
2023-01-03T02:00:30.664Z,1.80
2023-01-03T02:02:57.804Z,2.07
2023-01-03T02:05:26.185Z,1.93
2023-01-03T02:07:54.268Z,2.00
2023-01-03T02:10:36.148Z,1.70
2023-01-03T02:13:17.313Z,1.80
2023-01-03T02:16:13.366Z,1.37
2023-01-03T02:18:57.180Z,1.57
2023-01-03T02:21:52.322Z,1.80
2023-01-03T02:24:44.485Z,1.50
2023-01-03T02:27:29.514Z,1.30
2023-01-03T02:30:20.888Z,1.50
2023-01-03T02:33:31.195Z,1.40
2023-01-03T02:36:35.250Z,1.40
2023-01-03T02:39:12.877Z,1.37
2023-01-03T02:41:46.573Z,1.30
2023-01-03T02:44:44.896Z,1.50
2023-01-03T02:47:16.199Z,1.77
2023-01-03T02:49:48.002Z,1.17
2023-01-03T02:52:19.878Z,1.53
2023-01-03T02:54:56.419Z,1.50
2023-01-03T02:57:36.254Z,1.13
2023-01-03T03:00:38.852Z,1.10
2023-01-03T03:03:11.719Z,0.90
2023-01-03T03:06:01.439Z,1.47
2023-01-03T03:08:28.407Z,1.20
2023-01-03T03:11:14.661Z,1.03
2023-01-03T03:13:51.181Z,1.10
2023-01-03T03:16:48.416Z,0.97
2023-01-03T03:19:54.792Z,1.20
2023-01-03T03:22:59.906Z,0.90
2023-01-03T03:25:33.328Z,1.20
2023-01-03T03:28:21.867Z,0.90
2023-01-03T03:30:56.723Z,1.10
2023-01-03T03:33:26.443Z,0.97
2023-01-03T03:36:05.979Z,1.40
2023-01-03T03:38:37.533Z,1.47
2023-01-03T03:41:57.371Z,1.07
2023-01-03T03:44:48.782Z,1.07
2023-01-03T03:47:18.547Z,1.10
2023-01-03T03:49:49.382Z,1.20
2023-01-03T03:52:19.650Z,0.87
2023-01-03T03:55:09.325Z,1.00
2023-01-03T03:57:45.546Z,0.70
2023-01-03T04:00:17.101Z,1.00
2023-01-03T04:02:47.161Z,1.57
2023-01-03T04:05:19.306Z,1.00
2023-01-03T04:07:47.360Z,0.90
2023-01-03T04:10:20.227Z,1.10
2023-01-03T04:12:48.559Z,1.00
2023-01-03T04:15:16.418Z,0.90
2023-01-03T04:17:44.314Z,0.90
2023-01-03T04:20:12.032Z,1.10
2023-01-03T04:22:39.026Z,1.10
2023-01-03T04:25:06.799Z,1.10
2023-01-03T04:27:34.276Z,2.10
2023-01-03T04:30:01.608Z,1.67
2023-01-03T04:32:28.598Z,0.87
2023-01-03T04:34:55.598Z,1.17
2023-01-03T04:37:22.576Z,1.50
2023-01-03T04:39:49.519Z,1.10
2023-01-03T04:42:35.203Z,1.10
2023-01-03T04:45:02.099Z,1.20
2023-01-03T04:47:29.000Z,1.70
2023-01-03T04:49:55.958Z,1.27
2023-01-03T04:52:22.871Z,1.37
2023-01-03T04:54:49.803Z,1.07
2023-01-03T04:57:16.907Z,0.80
2023-01-03T04:59:43.836Z,1.10
2023-01-03T05:02:10.897Z,1.00
2023-01-03T05:04:37.938Z,1.20
2023-01-03T05:07:05.142Z,1.00
2023-01-03T05:09:32.099Z,1.23
2023-01-03T05:11:59.185Z,1.00
2023-01-03T05:14:26.100Z,1.10
2023-01-03T05:16:53.051Z,1.20
2023-01-03T05:19:20.275Z,1.00
2023-01-03T05:22:05.890Z,1.13
2023-01-03T05:24:51.830Z,1.37
2023-01-03T05:27:18.830Z,1.60
2023-01-03T05:29:49.921Z,1.00
2023-01-03T05:32:17.369Z,1.20
2023-01-03T05:34:44.330Z,0.90
2023-01-03T05:37:11.244Z,0.90
2023-01-03T05:39:38.321Z,1.10
2023-01-03T05:42:05.324Z,1.27
2023-01-03T05:44:34.028Z,1.10
2023-01-03T05:47:03.070Z,1.17
2023-01-03T05:49:30.170Z,1.47
2023-01-03T05:51:57.301Z,1.30
2023-01-03T05:54:24.298Z,1.00
2023-01-03T05:56:51.441Z,1.17
2023-01-03T05:59:19.652Z,0.97
2023-01-03T06:01:46.684Z,0.83
2023-01-03T06:04:13.729Z,1.17
2023-01-03T06:06:40.715Z,1.00
2023-01-03T06:09:07.672Z,1.20
2023-01-03T06:11:34.623Z,1.30
2023-01-03T06:14:01.694Z,1.10
2023-01-03T06:16:47.288Z,1.20
2023-01-03T06:19:14.416Z,1.20
2023-01-03T06:21:41.687Z,1.00
2023-01-03T06:24:09.268Z,1.00
2023-01-03T06:26:36.834Z,0.80
2023-01-03T06:29:04.966Z,1.40
2023-01-03T06:31:32.415Z,1.10
2023-01-03T06:33:59.459Z,1.20
2023-01-03T06:36:26.357Z,1.10
2023-01-03T06:38:54.134Z,1.83
2023-01-03T06:41:21.172Z,1.20
2023-01-03T06:43:48.129Z,1.47
2023-01-03T06:46:33.929Z,1.20
2023-01-03T06:49:19.668Z,1.37
2023-01-03T06:52:06.780Z,1.00
2023-01-03T06:54:36.251Z,1.30
2023-01-03T06:57:03.662Z,1.00
2023-01-03T06:59:30.791Z,1.30
2023-01-03T07:01:58.155Z,1.10
2023-01-03T07:04:27.224Z,1.67
2023-01-03T07:06:54.283Z,1.40
2023-01-03T07:09:21.513Z,1.40
2023-01-03T07:11:48.461Z,1.27
2023-01-03T07:14:15.464Z,1.33
2023-01-03T07:16:45.116Z,1.40
2023-01-03T07:19:17.672Z,1.20
2023-01-03T07:21:45.358Z,1.20
2023-01-03T07:24:15.606Z,1.57
2023-01-03T07:26:42.552Z,1.63
2023-01-03T07:29:10.830Z,1.03
2023-01-03T07:31:41.719Z,1.23
2023-01-03T07:34:09.725Z,2.40
2023-01-03T07:36:37.163Z,1.30
2023-01-03T07:39:04.360Z,1.27
2023-01-03T07:41:50.144Z,1.47
2023-01-03T07:44:17.173Z,1.03
2023-01-03T07:46:44.162Z,1.10
2023-01-03T07:49:12.193Z,1.33
2023-01-03T07:51:39.741Z,1.63
2023-01-03T07:54:07.886Z,1.00
2023-01-03T07:56:35.295Z,1.40
2023-01-03T07:59:02.417Z,1.00
2023-01-03T08:01:30.594Z,0.97
2023-01-03T08:03:57.966Z,0.83
2023-01-03T08:06:25.744Z,1.00
2023-01-03T08:09:12.102Z,0.97
2023-01-03T08:11:58.164Z,0.63
2023-01-03T08:14:26.978Z,1.20
2023-01-03T08:16:55.259Z,1.00
2023-01-03T08:19:22.576Z,0.47
2023-01-03T08:21:49.507Z,0.90
2023-01-03T08:24:16.518Z,1.17
2023-01-03T08:26:43.506Z,1.00
2023-01-03T08:29:10.551Z,0.80
2023-01-03T08:31:41.843Z,1.00
2023-01-03T08:34:17.060Z,0.80
2023-01-03T08:36:53.047Z,0.83
2023-01-03T08:39:27.812Z,1.27
2023-01-03T08:42:01.110Z,1.00
2023-01-03T08:44:28.224Z,0.70
2023-01-03T08:46:57.892Z,1.00
2023-01-03T08:49:24.999Z,1.00
2023-01-03T08:51:51.945Z,0.90
2023-01-03T08:54:18.952Z,1.00
2023-01-03T08:56:45.918Z,1.30
2023-01-03T08:59:12.946Z,1.20
2023-01-03T09:01:40.384Z,1.30
2023-01-03T09:04:07.541Z,1.03
2023-01-03T09:06:34.655Z,0.93
2023-01-03T09:09:06.892Z,1.20
2023-01-03T09:11:33.893Z,1.20
2023-01-03T09:14:01.197Z,1.03
2023-01-03T09:16:28.395Z,1.40
2023-01-03T09:18:55.411Z,0.80
2023-01-03T09:21:22.452Z,1.47
2023-01-03T09:23:49.387Z,1.60
2023-01-03T09:26:16.324Z,1.00
2023-01-03T09:28:43.275Z,1.10
2023-01-03T09:31:10.292Z,1.23
2023-01-03T09:33:37.276Z,1.10
2023-01-03T09:36:04.539Z,0.90
2023-01-03T09:38:31.495Z,0.80
2023-01-03T09:41:07.984Z,1.63
2023-01-03T09:43:45.803Z,1.10
2023-01-03T09:46:26.082Z,1.87
2023-01-03T09:48:55.459Z,1.70
2023-01-03T09:51:47.597Z,1.40
2023-01-03T09:54:57.983Z,1.17
2023-01-03T09:57:55.089Z,0.97
2023-01-03T10:00:47.406Z,1.10
2023-01-03T10:03:53.737Z,1.10
2023-01-03T10:06:26.354Z,1.30
2023-01-03T10:09:05.011Z,0.87
2023-01-03T10:11:50.523Z,1.27
2023-01-03T10:14:24.418Z,1.30
2023-01-03T10:17:13.870Z,1.30
2023-01-03T10:19:52.685Z,0.90
2023-01-03T10:22:25.744Z,1.03
2023-01-03T10:25:04.503Z,0.67
2023-01-03T10:27:54.714Z,1.10
2023-01-03T10:30:43.977Z,1.20
2023-01-03T10:33:18.970Z,1.07
2023-01-03T10:35:46.034Z,1.90
2023-01-03T10:38:15.904Z,1.30
2023-01-03T10:40:47.026Z,1.10
2023-01-03T10:43:27.069Z,1.20
2023-01-03T10:46:18.472Z,1.40
2023-01-03T10:51:46.903Z,1.27
2023-01-03T10:54:29.986Z,1.10
2023-01-03T10:56:57.487Z,1.07
2023-01-03T10:59:28.463Z,0.80
2023-01-03T11:02:16.653Z,0.93
2023-01-03T11:04:44.537Z,1.20
2023-01-03T11:07:13.938Z,1.20
2023-01-03T11:09:53.277Z,1.57
2023-01-03T11:12:30.207Z,1.20
2023-01-03T11:14:58.319Z,1.23
2023-01-03T11:17:27.088Z,1.30
2023-01-03T11:19:55.328Z,1.33
2023-01-03T11:22:38.355Z,1.43
2023-01-03T11:25:30.194Z,1.53
2023-01-03T11:28:50.931Z,1.80
2023-01-03T11:31:35.198Z,1.47
2023-01-03T11:34:20.889Z,1.90
2023-01-03T11:37:09.765Z,0.97
2023-01-03T11:39:48.821Z,1.20
2023-01-03T11:42:30.135Z,0.80
2023-01-03T11:45:00.143Z,1.70
2023-01-03T11:47:39.021Z,0.73
2023-01-03T11:50:27.088Z,1.57
2023-01-03T11:53:04.199Z,1.10
2023-01-03T11:55:36.973Z,0.97
2023-01-03T11:58:31.105Z,1.27
2023-01-03T12:01:39.332Z,1.20
2023-01-03T12:04:15.556Z,1.20
2023-01-03T12:07:29.108Z,1.23
2023-01-03T12:10:12.870Z,1.60
2023-01-03T12:12:58.121Z,1.10
2023-01-03T12:15:34.901Z,1.00
2023-01-03T12:18:16.713Z,0.97
2023-01-03T12:20:51.280Z,1.30
2023-01-03T12:23:35.963Z,1.10
2023-01-03T12:26:07.046Z,1.20
2023-01-03T12:28:52.726Z,0.80
2023-01-03T12:31:35.708Z,1.47
2023-01-03T12:34:24.198Z,1.00
2023-01-03T12:37:19.578Z,1.37
2023-01-03T12:40:17.509Z,0.90
2023-01-03T12:42:59.307Z,1.47
2023-01-03T12:45:47.348Z,1.20
2023-01-03T12:48:48.473Z,1.17
2023-01-03T12:51:22.519Z,1.50
2023-01-03T12:54:11.660Z,1.07
2023-01-03T12:56:56.319Z,1.20
2023-01-03T12:59:29.156Z,0.67
2023-01-03T13:02:36.588Z,1.30
2023-01-03T13:05:30.861Z,0.97
2023-01-03T13:08:31.501Z,0.70
2023-01-03T13:11:08.663Z,1.10
2023-01-03T13:13:36.308Z,1.37
2023-01-03T13:16:39.024Z,0.90
2023-01-03T13:19:24.110Z,0.87
2023-01-03T13:22:05.654Z,0.87
2023-01-03T13:24:49.637Z,0.97
2023-01-03T13:27:26.068Z,1.20
2023-01-03T13:29:53.286Z,0.80
2023-01-03T13:32:23.143Z,0.80
2023-01-03T13:35:02.465Z,1.10
2023-01-03T13:37:44.843Z,1.20
2023-01-03T13:40:52.190Z,0.97
2023-01-03T13:43:22.170Z,1.00
2023-01-03T13:45:50.649Z,0.97
2023-01-03T13:48:24.755Z,1.27
2023-01-03T13:51:18.940Z,1.57
2023-01-03T13:54:12.233Z,1.00
2023-01-03T13:56:52.879Z,1.70
2023-01-03T13:59:35.677Z,1.03
2023-01-03T14:02:40.597Z,1.20
2023-01-03T14:05:18.841Z,0.93
2023-01-03T14:08:05.935Z,1.70
2023-01-03T14:11:02.358Z,1.03
2023-01-03T14:13:49.962Z,0.80
2023-01-03T14:16:24.979Z,1.30
2023-01-03T14:19:12.980Z,1.10
2023-01-03T14:21:57.430Z,0.80
2023-01-03T14:24:30.021Z,0.80
2023-01-03T14:27:16.923Z,1.37
2023-01-03T14:29:50.073Z,1.97
2023-01-03T14:32:34.404Z,1.30
2023-01-03T14:35:02.458Z,1.20
2023-01-03T14:37:30.420Z,1.57
2023-01-03T14:39:59.900Z,0.90
2023-01-03T14:42:27.888Z,1.00
2023-01-03T14:45:00.594Z,1.07
2023-01-03T14:47:39.141Z,0.87
2023-01-03T14:50:08.071Z,1.30
2023-01-03T14:52:43.794Z,1.17
2023-01-03T14:55:20.043Z,1.80
2023-01-03T14:57:49.633Z,0.93
2023-01-03T15:00:32.187Z,1.50
2023-01-03T15:03:00.181Z,1.20
2023-01-03T15:05:31.398Z,1.30
2023-01-03T15:08:30.782Z,1.53
2023-01-03T15:11:08.487Z,1.03
2023-01-03T15:13:51.544Z,1.07
2023-01-03T15:16:41.515Z,1.30
2023-01-03T15:19:14.633Z,1.30
2023-01-03T15:21:42.650Z,0.97
2023-01-03T15:24:18.669Z,1.30
2023-01-03T15:26:48.850Z,1.20
2023-01-03T15:29:23.900Z,1.20
2023-01-03T15:31:55.422Z,1.07
2023-01-03T15:34:35.035Z,1.20
2023-01-03T15:37:24.155Z,1.10
2023-01-03T15:39:53.998Z,1.00
2023-01-03T15:42:45.183Z,1.20
2023-01-03T15:45:24.502Z,1.10
2023-01-03T15:47:56.509Z,1.00
2023-01-03T15:50:33.601Z,1.20
2023-01-03T15:53:00.757Z,1.33
2023-01-03T15:55:28.012Z,0.93
2023-01-03T15:57:58.726Z,1.10
2023-01-03T16:00:26.649Z,1.00
2023-01-03T16:02:54.310Z,1.13
2023-01-03T16:05:23.408Z,1.83
2023-01-03T16:07:51.807Z,0.90
2023-01-03T16:10:21.684Z,2.20
2023-01-03T16:12:49.477Z,1.10
2023-01-03T16:15:25.115Z,1.70
2023-01-03T16:17:52.473Z,1.73
2023-01-03T16:20:20.078Z,1.70
2023-01-03T16:22:58.030Z,1.00
2023-01-03T16:25:28.809Z,1.40
2023-01-03T16:27:57.488Z,1.47
2023-01-03T16:30:24.661Z,1.17
2023-01-03T16:32:52.240Z,1.30
2023-01-03T16:35:23.027Z,1.23
2023-01-03T16:37:52.176Z,1.03
2023-01-03T16:40:21.076Z,1.30
2023-01-03T16:42:48.969Z,1.37
2023-01-03T16:45:17.560Z,1.20
2023-01-03T16:47:45.220Z,1.10
2023-01-03T16:50:18.636Z,1.20
2023-01-03T16:52:52.554Z,1.27
2023-01-03T16:55:32.659Z,1.43
2023-01-03T16:58:00.053Z,2.20
2023-01-03T17:00:30.766Z,1.17
2023-01-03T17:03:00.333Z,1.40
2023-01-03T17:05:36.186Z,1.13
2023-01-03T17:08:21.871Z,1.50
2023-01-03T17:10:52.546Z,2.07
2023-01-03T17:13:37.112Z,1.40
2023-01-03T17:16:06.102Z,1.70
2023-01-03T17:18:41.158Z,1.60
2023-01-03T17:21:25.920Z,1.33
2023-01-03T17:23:59.273Z,1.50
2023-01-03T17:26:27.368Z,1.50
2023-01-03T17:28:55.440Z,1.30
2023-01-03T17:31:25.135Z,1.30
2023-01-03T17:33:53.148Z,1.43
2023-01-03T17:36:30.833Z,1.10
2023-01-03T17:39:02.225Z,1.40
2023-01-03T17:41:30.989Z,1.17
2023-01-03T17:43:58.086Z,2.13
2023-01-03T17:46:47.880Z,1.50
2023-01-03T17:49:25.055Z,1.80
2023-01-03T17:51:56.261Z,1.50
2023-01-03T17:54:28.658Z,1.57
2023-01-03T17:56:59.532Z,1.23
2023-01-03T17:59:30.406Z,1.80
2023-01-03T18:01:57.990Z,2.60
2023-01-03T18:04:44.142Z,1.77
2023-01-03T18:07:25.954Z,1.90
2023-01-03T18:09:55.281Z,1.50
2023-01-03T18:12:24.123Z,1.77
2023-01-03T18:14:51.478Z,1.80
2023-01-03T18:17:33.889Z,1.67
2023-01-03T18:20:01.946Z,1.93
2023-01-03T18:22:29.293Z,2.00
2023-01-03T18:24:57.794Z,1.10
2023-01-03T18:27:27.330Z,1.70
2023-01-03T18:29:54.353Z,1.37
2023-01-03T18:32:28.247Z,1.67
2023-01-03T18:34:55.874Z,1.57
2023-01-03T18:37:24.639Z,1.77
2023-01-03T18:39:52.265Z,1.80
2023-01-03T18:42:37.781Z,2.77
2023-01-03T18:45:05.313Z,1.80
2023-01-03T18:47:32.405Z,1.60
2023-01-03T18:49:59.606Z,1.80
2023-01-03T18:52:34.359Z,2.97
2023-01-03T18:55:01.752Z,1.60
2023-01-03T18:57:28.808Z,1.77
2023-01-03T18:59:55.836Z,2.30
2023-01-03T19:02:23.195Z,1.73
2023-01-03T19:04:51.751Z,1.60
2023-01-03T19:07:33.238Z,1.60
2023-01-03T19:10:01.445Z,1.53
2023-01-03T19:12:31.687Z,1.80
2023-01-03T19:15:01.680Z,1.60
2023-01-03T19:17:28.627Z,1.57
2023-01-03T19:19:55.571Z,2.77
2023-01-03T19:22:27.093Z,1.50
2023-01-03T19:24:57.033Z,2.20
2023-01-03T19:27:44.824Z,2.00
2023-01-03T19:30:25.712Z,2.40
2023-01-03T19:32:57.109Z,1.60
2023-01-03T19:35:24.590Z,2.53
2023-01-03T19:37:51.679Z,2.43
2023-01-03T19:40:22.934Z,1.80
2023-01-03T19:42:55.463Z,1.70
2023-01-03T19:45:32.972Z,1.67
2023-01-03T19:48:02.738Z,1.77
2023-01-03T19:50:34.997Z,2.53
2023-01-03T19:53:02.281Z,1.90
2023-01-03T19:55:34.239Z,1.33
2023-01-03T19:58:18.087Z,2.07
2023-01-03T20:00:47.916Z,1.53
2023-01-03T20:03:34.751Z,1.80
2023-01-03T20:06:01.945Z,2.60
2023-01-03T20:08:29.124Z,1.47
2023-01-03T20:10:57.592Z,1.70
2023-01-03T20:13:27.217Z,1.87
2023-01-03T20:15:58.057Z,1.53
2023-01-03T20:18:39.036Z,2.07
2023-01-03T20:21:24.561Z,1.30
2023-01-03T20:24:00.589Z,1.50
2023-01-03T20:26:30.564Z,2.70
2023-01-03T20:28:58.784Z,1.50
2023-01-03T20:31:29.329Z,1.77
2023-01-03T20:33:56.374Z,2.00
2023-01-03T20:36:31.904Z,1.40
2023-01-03T20:38:58.898Z,1.80
2023-01-03T20:41:36.528Z,1.33
2023-01-03T20:44:07.395Z,1.17
2023-01-03T20:46:34.547Z,1.50
2023-01-03T20:49:03.523Z,1.27
2023-01-03T20:51:30.519Z,1.77
2023-01-03T20:53:57.661Z,1.40
2023-01-03T20:56:26.643Z,1.47
2023-01-03T20:58:54.680Z,1.53
2023-01-03T21:01:21.739Z,1.97
2023-01-03T21:03:48.969Z,1.30
2023-01-03T21:06:19.867Z,1.70
2023-01-03T21:08:56.186Z,1.47
2023-01-03T21:11:28.606Z,1.37
2023-01-03T21:13:57.224Z,1.20
2023-01-03T21:16:43.830Z,1.40
2023-01-03T21:19:15.242Z,1.60
2023-01-03T21:21:53.564Z,1.80
2023-01-03T21:24:22.659Z,1.40
2023-01-03T21:26:49.885Z,1.07
2023-01-03T21:29:17.649Z,1.20
2023-01-03T21:31:44.689Z,1.73
2023-01-03T21:34:22.162Z,1.30
2023-01-03T21:36:49.153Z,1.50
2023-01-03T21:39:18.703Z,1.20
2023-01-03T21:42:04.111Z,1.40
2023-01-03T21:44:31.052Z,1.33
2023-01-03T21:46:57.971Z,1.33
2023-01-03T21:49:24.908Z,1.70
2023-01-03T21:51:51.886Z,1.70
2023-01-03T21:54:18.817Z,1.53
2023-01-03T21:56:46.714Z,1.40
2023-01-03T21:59:17.022Z,1.67
2023-01-03T22:02:03.577Z,1.43
2023-01-03T22:04:31.166Z,1.50
2023-01-03T22:07:02.858Z,1.50
2023-01-03T22:09:49.888Z,1.10
2023-01-03T22:12:18.156Z,1.60
2023-01-03T22:14:46.160Z,1.20
2023-01-03T22:17:13.672Z,1.40
2023-01-03T22:19:40.639Z,1.60
2023-01-03T22:22:07.928Z,1.50
2023-01-03T22:24:34.954Z,1.50
2023-01-03T22:27:01.857Z,1.30
2023-01-03T22:29:28.841Z,1.73
2023-01-03T22:31:55.821Z,1.70
2023-01-03T22:34:22.900Z,1.60
2023-01-03T22:36:49.818Z,6.50
2023-01-03T22:39:17.839Z,1.67
2023-01-03T22:41:44.751Z,1.20
2023-01-03T22:44:11.658Z,1.33
2023-01-03T22:46:39.237Z,1.30
2023-01-03T22:49:06.192Z,1.27
2023-01-03T22:51:35.728Z,1.47
2023-01-03T22:54:02.744Z,1.83
2023-01-03T22:56:29.692Z,1.27
2023-01-03T22:58:56.705Z,1.30
2023-01-03T23:01:28.265Z,1.30
2023-01-03T23:03:59.909Z,1.30
2023-01-03T23:06:29.226Z,1.60
2023-01-03T23:08:56.747Z,1.23
2023-01-03T23:11:44.118Z,1.33
2023-01-03T23:14:16.990Z,1.60
2023-01-03T23:16:44.904Z,1.57
2023-01-03T23:19:14.980Z,1.67
2023-01-03T23:21:42.747Z,1.30
2023-01-03T23:24:19.113Z,1.60
2023-01-03T23:26:46.134Z,1.50
2023-01-03T23:29:14.626Z,1.40
2023-01-03T23:31:42.475Z,1.50
2023-01-03T23:34:13.693Z,1.60
2023-01-03T23:36:43.433Z,1.30
2023-01-03T23:39:16.336Z,1.30
2023-01-03T23:41:43.466Z,1.60
2023-01-03T23:44:10.462Z,1.13
2023-01-03T23:46:37.466Z,1.30
2023-01-03T23:49:04.495Z,1.70
2023-01-03T23:51:31.524Z,1.60
2023-01-03T23:53:59.337Z,1.57
2023-01-03T23:56:26.470Z,1.30
2023-01-03T23:58:53.424Z,1.37
